Terminal Aerodrome Forecast
Issued by NWS

Home | Current Version | Previous Version | Text Only | Print | Product List | Glossary On
Versions: 1 2 3 4 5 6 7 8 9 10 11 12 13 14 15 16 17 18 19 20 21 22 23 24 25 26
000
FTUS43 KGRB 200500
TAFATW
TAF
KATW 200520Z 2006/2106 30006KT 6SM BR SCT015 BKN090
      TEMPO 2007/2009 3SM BR SCT005
     FM200900 30004KT 1SM BR BKN004
     FM201400 31006KT 3SM BR BKN012
     FM201700 30006KT P6SM BKN030
     FM202300 13003KT P6SM SCT035
      TEMPO 2105/2106 5SM BR=

USA.gov is the U.S. government's official web portal to all federal, state and local government web resources and services.